WMKN/TGG METAR and TAF weather

Enter ICAO airport designator
Station Type Date Time Source
WMKN METAR 2020/07/05 16:00 UTC NOAA

WMKN 051600Z VRB02KT 9999 FEW022 27/26 Q1008


Station Type Date Time Source
WMKN Decoded METAR 2020/07/05 16:00 UTC NOAA

Station name not available
Jul 05, 2020 - 12:00 PM EDT / 2020.07.05 1600 UTC
Wind: Variable at 2 MPH (2 KT):0
Visibility: greater than 7 mile(s):0
Sky conditions: mostly clear
Temperature: 80 F (27 C)
Dew Point: 78 F (26 C)
Relative Humidity: 94%
Pressure (altimeter): 29.77 in. Hg (1008 hPa)
ob: WMKN 051600Z VRB02KT 9999 FEW022 27/26 Q1008
cycle: 16

Station Type Date Time Source
WMKN TAF 2020/07/05 12:00 UTC NOAA

TAF WMKN 051100Z 0512/0612 21005KT 9999 FEW022
BECMG 0516/0517 VRB03KT
BECMG 0600/0601 20005KT FEW018

Example: see airport list